sensor_id;sensor_type;location;lat;lon;timestamp;temperature;humidity
9425;DHT22;17139;52.140;11.636;2023-05-19T00:01:23;10.40;40.70
9425;DHT22;17139;52.140;11.636;2023-05-19T00:03:51;10.80;42.10
9425;DHT22;17139;52.140;11.636;2023-05-19T00:06:21;10.70;40.90
9425;DHT22;17139;52.140;11.636;2023-05-19T00:08:51;10.50;40.90
9425;DHT22;17139;52.140;11.636;2023-05-19T00:11:21;10.40;40.90
9425;DHT22;17139;52.140;11.636;2023-05-19T00:13:50;10.30;41.00
9425;DHT22;17139;52.140;11.636;2023-05-19T00:16:17;10.20;41.00
9425;DHT22;17139;52.140;11.636;2023-05-19T00:18:44;10.20;41.00
9425;DHT22;17139;52.140;11.636;2023-05-19T00:21:13;10.20;41.00
9425;DHT22;17139;52.140;11.636;2023-05-19T00:23:41;10.10;41.00
9425;DHT22;17139;52.140;11.636;2023-05-19T00:26:08;10.10;41.00
9425;DHT22;17139;52.140;11.636;2023-05-19T00:28:35;10.10;41.00
9425;DHT22;17139;52.140;11.636;2023-05-19T00:31:04;10.00;41.00
9425;DHT22;17139;52.140;11.636;2023-05-19T00:33:31;10.00;41.00
9425;DHT22;17139;52.140;11.636;2023-05-19T00:35:59;10.00;41.00
9425;DHT22;17139;52.140;11.636;2023-05-19T00:38:27;10.00;41.00
9425;DHT22;17139;52.140;11.636;2023-05-19T00:40:54;10.00;41.00
9425;DHT22;17139;52.140;11.636;2023-05-19T00:43:21;10.00;41.00
9425;DHT22;17139;52.140;11.636;2023-05-19T00:45:49;10.00;41.00
9425;DHT22;17139;52.140;11.636;2023-05-19T00:48:17;10.00;41.10
9425;DHT22;17139;52.140;11.636;2023-05-19T00:50:45;10.30;42.50
9425;DHT22;17139;52.140;11.636;2023-05-19T00:53:13;10.70;42.50
9425;DHT22;17139;52.140;11.636;2023-05-19T00:55:43;10.60;41.20
9425;DHT22;17139;52.140;11.636;2023-05-19T00:58:11;10.30;41.10
9425;DHT22;17139;52.140;11.636;2023-05-19T01:00:39;10.20;41.30
9425;DHT22;17139;52.140;11.636;2023-05-19T01:03:08;10.10;41.30
9425;DHT22;17139;52.140;11.636;2023-05-19T01:05:38;10.10;41.30
9425;DHT22;17139;52.140;11.636;2023-05-19T01:08:09;10.10;41.40
9425;DHT22;17139;52.140;11.636;2023-05-19T01:10:36;10.00;41.30
9425;DHT22;17139;52.140;11.636;2023-05-19T01:13:03;10.60;43.00
9425;DHT22;17139;52.140;11.636;2023-05-19T01:15:34;10.50;41.50
9425;DHT22;17139;52.140;11.636;2023-05-19T01:18:06;10.30;41.40
9425;DHT22;17139;52.140;11.636;2023-05-19T01:20:40;10.10;41.40
9425;DHT22;17139;52.140;11.636;2023-05-19T01:23:36;10.10;41.50
9425;DHT22;17139;52.140;11.636;2023-05-19T01:26:41;10.00;41.60
9425;DHT22;17139;52.140;11.636;2023-05-19T01:29:30;10.00;41.60
9425;DHT22;17139;52.140;11.636;2023-05-19T01:32:05;9.90;41.60
9425;DHT22;17139;52.140;11.636;2023-05-19T01:34:33;10.40;42.90
9425;DHT22;17139;52.140;11.636;2023-05-19T01:37:07;10.30;41.60
9425;DHT22;17139;52.140;11.636;2023-05-19T01:39:34;10.10;41.50
9425;DHT22;17139;52.140;11.636;2023-05-19T01:42:03;10.10;41.80
9425;DHT22;17139;52.140;11.636;2023-05-19T01:44:32;10.00;41.60
9425;DHT22;17139;52.140;11.636;2023-05-19T01:46:59;10.00;41.60
9425;DHT22;17139;52.140;11.636;2023-05-19T01:49:28;9.90;41.60
9425;DHT22;17139;52.140;11.636;2023-05-19T01:51:55;9.90;41.60
9425;DHT22;17139;52.140;11.636;2023-05-19T01:54:22;9.80;41.50
9425;DHT22;17139;52.140;11.636;2023-05-19T01:56:59;9.80;41.60
9425;DHT22;17139;52.140;11.636;2023-05-19T01:59:43;9.80;41.70
9425;DHT22;17139;52.140;11.636;2023-05-19T02:02:20;9.70;41.80
9425;DHT22;17139;52.140;11.636;2023-05-19T02:04:56;9.60;41.70
9425;DHT22;17139;52.140;11.636;2023-05-19T02:07:30;10.10;43.20
9425;DHT22;17139;52.140;11.636;2023-05-19T02:10:03;10.70;43.20
9425;DHT22;17139;52.140;11.636;2023-05-19T02:12:34;10.30;41.70
9425;DHT22;17139;52.140;11.636;2023-05-19T02:15:04;10.00;41.70
9425;DHT22;17139;52.140;11.636;2023-05-19T02:17:35;9.80;42.00
9425;DHT22;17139;52.140;11.636;2023-05-19T02:20:07;9.60;42.10
9425;DHT22;17139;52.140;11.636;2023-05-19T02:22:34;9.50;42.10
9425;DHT22;17139;52.140;11.636;2023-05-19T02:25:02;9.40;42.00
9425;DHT22;17139;52.140;11.636;2023-05-19T02:27:29;9.40;42.00
9425;DHT22;17139;52.140;11.636;2023-05-19T02:29:56;9.50;42.70
9425;DHT22;17139;52.140;11.636;2023-05-19T02:32:23;9.40;42.00
9425;DHT22;17139;52.140;11.636;2023-05-19T02:34:50;9.30;42.00
9425;DHT22;17139;52.140;11.636;2023-05-19T02:37:19;9.20;41.90
9425;DHT22;17139;52.140;11.636;2023-05-19T02:39:48;9.20;41.90
9425;DHT22;17139;52.140;11.636;2023-05-19T02:42:15;9.10;41.80
9425;DHT22;17139;52.140;11.636;2023-05-19T02:44:43;9.10;42.00
9425;DHT22;17139;52.140;11.636;2023-05-19T02:47:10;9.10;42.10
9425;DHT22;17139;52.140;11.636;2023-05-19T02:49:37;9.00;42.00
9425;DHT22;17139;52.140;11.636;2023-05-19T02:52:05;8.90;42.00
9425;DHT22;17139;52.140;11.636;2023-05-19T02:54:33;9.20;43.20
9425;DHT22;17139;52.140;11.636;2023-05-19T02:57:01;9.20;42.30
9425;DHT22;17139;52.140;11.636;2023-05-19T02:59:28;9.00;42.00
9425;DHT22;17139;52.140;11.636;2023-05-19T03:02:01;8.90;42.00
9425;DHT22;17139;52.140;11.636;2023-05-19T03:04:28;8.90;42.20
9425;DHT22;17139;52.140;11.636;2023-05-19T03:06:55;8.80;42.10
9425;DHT22;17139;52.140;11.636;2023-05-19T03:09:23;8.80;42.10
9425;DHT22;17139;52.140;11.636;2023-05-19T03:11:51;8.80;42.20
9425;DHT22;17139;52.140;11.636;2023-05-19T03:14:18;8.80;42.30
9425;DHT22;17139;52.140;11.636;2023-05-19T03:16:48;9.30;44.10
9425;DHT22;17139;52.140;11.636;2023-05-19T03:19:15;9.10;42.30
9425;DHT22;17139;52.140;11.636;2023-05-19T03:21:42;8.90;42.20
9425;DHT22;17139;52.140;11.636;2023-05-19T03:24:09;8.80;42.30
9425;DHT22;17139;52.140;11.636;2023-05-19T03:26:36;8.70;42.40
9425;DHT22;17139;52.140;11.636;2023-05-19T03:29:05;8.60;42.40
9425;DHT22;17139;52.140;11.636;2023-05-19T03:31:32;8.60;42.40
9425;DHT22;17139;52.140;11.636;2023-05-19T03:33:59;8.60;42.50
9425;DHT22;17139;52.140;11.636;2023-05-19T03:36:26;9.30;44.50
9425;DHT22;17139;52.140;11.636;2023-05-19T03:38:56;9.10;42.70
9425;DHT22;17139;52.140;11.636;2023-05-19T03:41:23;8.90;42.50
9425;DHT22;17139;52.140;11.636;2023-05-19T03:43:50;8.90;43.20
9425;DHT22;17139;52.140;11.636;2023-05-19T03:46:18;8.80;42.60
9425;DHT22;17139;52.140;11.636;2023-05-19T03:48:45;8.80;42.70
9425;DHT22;17139;52.140;11.636;2023-05-19T03:51:12;8.70;42.60
9425;DHT22;17139;52.140;11.636;2023-05-19T03:53:39;8.70;42.70
9425;DHT22;17139;52.140;11.636;2023-05-19T03:56:08;8.70;42.60
9425;DHT22;17139;52.140;11.636;2023-05-19T03:58:36;8.60;42.50
9425;DHT22;17139;52.140;11.636;2023-05-19T04:01:05;8.60;42.50
9425;DHT22;17139;52.140;11.636;2023-05-19T04:03:33;8.70;42.60
9425;DHT22;17139;52.140;11.636;2023-05-19T04:06:00;8.60;42.50
9425;DHT22;17139;52.140;11.636;2023-05-19T04:08:27;9.20;44.20
9425;DHT22;17139;52.140;11.636;2023-05-19T04:10:54;9.80;44.30
9425;DHT22;17139;52.140;11.636;2023-05-19T04:13:22;9.60;42.70
9425;DHT22;17139;52.140;11.636;2023-05-19T04:15:49;9.30;42.60
9425;DHT22;17139;52.140;11.636;2023-05-19T04:18:16;9.20;42.60
9425;DHT22;17139;52.140;11.636;2023-05-19T04:20:44;9.10;42.60
9425;DHT22;17139;52.140;11.636;2023-05-19T04:23:14;9.20;42.80
9425;DHT22;17139;52.140;11.636;2023-05-19T04:25:41;9.20;42.70
9425;DHT22;17139;52.140;11.636;2023-05-19T04:28:08;9.30;42.60
9425;DHT22;17139;52.140;11.636;2023-05-19T04:30:35;9.30;42.50
9425;DHT22;17139;52.140;11.636;2023-05-19T04:33:03;9.40;42.60
9425;DHT22;17139;52.140;11.636;2023-05-19T04:35:30;9.50;42.40
9425;DHT22;17139;52.140;11.636;2023-05-19T04:37:58;9.50;42.30
9425;DHT22;17139;52.140;11.636;2023-05-19T04:40:26;9.50;42.20
9425;DHT22;17139;52.140;11.636;2023-05-19T04:42:55;9.60;42.20
9425;DHT22;17139;52.140;11.636;2023-05-19T04:45:22;9.60;42.20
9425;DHT22;17139;52.140;11.636;2023-05-19T04:47:50;9.60;42.20
9425;DHT22;17139;52.140;11.636;2023-05-19T04:50:17;9.50;42.20
9425;DHT22;17139;52.140;11.636;2023-05-19T04:52:45;9.60;42.20
9425;DHT22;17139;52.140;11.636;2023-05-19T04:55:13;10.50;43.60
9425;DHT22;17139;52.140;11.636;2023-05-19T04:57:40;10.40;42.30
9425;DHT22;17139;52.140;11.636;2023-05-19T05:00:08;10.40;42.60
9425;DHT22;17139;52.140;11.636;2023-05-19T05:02:37;10.30;42.30
9425;DHT22;17139;52.140;11.636;2023-05-19T05:05:06;10.20;42.50
9425;DHT22;17139;52.140;11.636;2023-05-19T05:07:34;10.10;42.60
9425;DHT22;17139;52.140;11.636;2023-05-19T05:10:01;10.00;42.60
9425;DHT22;17139;52.140;11.636;2023-05-19T05:12:30;10.00;42.60
9425;DHT22;17139;52.140;11.636;2023-05-19T05:14:57;10.00;42.60
9425;DHT22;17139;52.140;11.636;2023-05-19T05:17:25;9.90;42.50
9425;DHT22;17139;52.140;11.636;2023-05-19T05:19:53;9.90;42.50
9425;DHT22;17139;52.140;11.636;2023-05-19T05:22:20;9.90;42.50
9425;DHT22;17139;52.140;11.636;2023-05-19T05:24:48;10.80;43.80
9425;DHT22;17139;52.140;11.636;2023-05-19T05:27:15;10.70;42.60
9425;DHT22;17139;52.140;11.636;2023-05-19T05:29:43;10.50;42.50
9425;DHT22;17139;52.140;11.636;2023-05-19T05:32:10;10.50;42.60
9425;DHT22;17139;52.140;11.636;2023-05-19T05:34:37;10.50;42.80
9425;DHT22;17139;52.140;11.636;2023-05-19T05:37:06;10.60;43.00
9425;DHT22;17139;52.140;11.636;2023-05-19T05:39:33;10.80;43.20
9425;DHT22;17139;52.140;11.636;2023-05-19T05:42:00;11.00;43.20
9425;DHT22;17139;52.140;11.636;2023-05-19T05:44:27;11.30;43.40
9425;DHT22;17139;52.140;11.636;2023-05-19T05:46:57;12.00;43.80
9425;DHT22;17139;52.140;11.636;2023-05-19T05:49:24;12.60;43.20
9425;DHT22;17139;52.140;11.636;2023-05-19T05:51:51;12.70;42.80
9425;DHT22;17139;52.140;11.636;2023-05-19T05:54:21;12.70;42.90
9425;DHT22;17139;52.140;11.636;2023-05-19T05:56:49;12.70;42.80
9425;DHT22;17139;52.140;11.636;2023-05-19T05:59:16;12.80;43.10
9425;DHT22;17139;52.140;11.636;2023-05-19T06:01:44;13.00;43.30
9425;DHT22;17139;52.140;11.636;2023-05-19T06:04:13;13.10;43.00
9425;DHT22;17139;52.140;11.636;2023-05-19T06:06:40;13.20;42.80
9425;DHT22;17139;52.140;11.636;2023-05-19T06:09:07;13.20;42.70
9425;DHT22;17139;52.140;11.636;2023-05-19T06:11:34;14.10;41.90
9425;DHT22;17139;52.140;11.636;2023-05-19T06:14:01;13.80;41.80
9425;DHT22;17139;52.140;11.636;2023-05-19T06:16:28;13.50;42.10
9425;DHT22;17139;52.140;11.636;2023-05-19T06:18:55;13.40;42.40
9425;DHT22;17139;52.140;11.636;2023-05-19T06:21:24;13.30;42.30
9425;DHT22;17139;52.140;11.636;2023-05-19T06:23:51;13.30;42.40
9425;DHT22;17139;52.140;11.636;2023-05-19T06:26:18;13.30;42.30
9425;DHT22;17139;52.140;11.636;2023-05-19T06:28:46;13.30;42.30
9425;DHT22;17139;52.140;11.636;2023-05-19T06:31:12;13.30;42.30
9425;DHT22;17139;52.140;11.636;2023-05-19T06:33:39;13.30;42.30
9425;DHT22;17139;52.140;11.636;2023-05-19T06:36:07;13.30;42.20
9425;DHT22;17139;52.140;11.636;2023-05-19T06:38:36;13.20;42.20
9425;DHT22;17139;52.140;11.636;2023-05-19T06:41:03;13.10;42.20
9425;DHT22;17139;52.140;11.636;2023-05-19T06:43:30;13.00;42.20
9425;DHT22;17139;52.140;11.636;2023-05-19T06:45:57;12.90;42.30
9425;DHT22;17139;52.140;11.636;2023-05-19T06:48:24;12.90;42.40
9425;DHT22;17139;52.140;11.636;2023-05-19T06:50:51;13.10;42.40
9425;DHT22;17139;52.140;11.636;2023-05-19T06:53:18;13.10;42.10
9425;DHT22;17139;52.140;11.636;2023-05-19T06:55:47;13.00;42.10
9425;DHT22;17139;52.140;11.636;2023-05-19T06:58:15;13.20;42.20
9425;DHT22;17139;52.140;11.636;2023-05-19T07:00:42;13.10;41.90
9425;DHT22;17139;52.140;11.636;2023-05-19T07:03:09;12.80;41.90
9425;DHT22;17139;52.140;11.636;2023-05-19T07:05:36;12.70;42.10
9425;DHT22;17139;52.140;11.636;2023-05-19T07:08:04;12.70;42.20
9425;DHT22;17139;52.140;11.636;2023-05-19T07:10:32;12.60;42.20
9425;DHT22;17139;52.140;11.636;2023-05-19T07:13:01;12.70;42.30
9425;DHT22;17139;52.140;11.636;2023-05-19T07:15:29;12.80;42.40
9425;DHT22;17139;52.140;11.636;2023-05-19T07:17:57;12.80;42.30
9425;DHT22;17139;52.140;11.636;2023-05-19T07:20:24;13.00;42.30
9425;DHT22;17139;52.140;11.636;2023-05-19T07:22:51;13.40;42.40
9425;DHT22;17139;52.140;11.636;2023-05-19T07:25:18;13.40;42.00
9425;DHT22;17139;52.140;11.636;2023-05-19T07:27:45;13.30;42.10
9425;DHT22;17139;52.140;11.636;2023-05-19T07:30:14;13.40;42.30
9425;DHT22;17139;52.140;11.636;2023-05-19T07:32:41;13.40;42.20
9425;DHT22;17139;52.140;11.636;2023-05-19T07:35:08;13.40;42.30
9425;DHT22;17139;52.140;11.636;2023-05-19T07:37:35;13.50;42.30
9425;DHT22;17139;52.140;11.636;2023-05-19T07:40:03;13.50;42.20
9425;DHT22;17139;52.140;11.636;2023-05-19T07:42:31;13.40;42.20
9425;DHT22;17139;52.140;11.636;2023-05-19T07:44:58;14.40;42.00
9425;DHT22;17139;52.140;11.636;2023-05-19T07:47:26;14.20;41.60
9425;DHT22;17139;52.140;11.636;2023-05-19T07:49:53;14.00;42.00
9425;DHT22;17139;52.140;11.636;2023-05-19T07:52:20;13.90;42.20
9425;DHT22;17139;52.140;11.636;2023-05-19T07:54:47;13.90;42.20
9425;DHT22;17139;52.140;11.636;2023-05-19T07:57:15;13.90;42.20
9425;DHT22;17139;52.140;11.636;2023-05-19T07:59:43;13.90;42.20
9425;DHT22;17139;52.140;11.636;2023-05-19T08:02:10;13.90;42.40
9425;DHT22;17139;52.140;11.636;2023-05-19T08:04:39;14.00;42.50
9425;DHT22;17139;52.140;11.636;2023-05-19T08:07:06;14.00;42.50
9425;DHT22;17139;52.140;11.636;2023-05-19T08:09:33;14.10;42.70
9425;DHT22;17139;52.140;11.636;2023-05-19T08:12:00;14.10;42.40
9425;DHT22;17139;52.140;11.636;2023-05-19T08:14:27;14.10;42.40
9425;DHT22;17139;52.140;11.636;2023-05-19T08:16:54;14.10;42.50
9425;DHT22;17139;52.140;11.636;2023-05-19T08:19:21;14.10;42.60
9425;DHT22;17139;52.140;11.636;2023-05-19T08:21:50;14.10;42.60
9425;DHT22;17139;52.140;11.636;2023-05-19T08:24:17;14.10;42.80
9425;DHT22;17139;52.140;11.636;2023-05-19T08:26:44;14.70;43.20
9425;DHT22;17139;52.140;11.636;2023-05-19T08:29:11;14.70;42.60
9425;DHT22;17139;52.140;11.636;2023-05-19T08:31:37;14.70;42.60
9425;DHT22;17139;52.140;11.636;2023-05-19T08:34:05;15.30;42.70
9425;DHT22;17139;52.140;11.636;2023-05-19T08:36:32;15.30;42.20
9425;DHT22;17139;52.140;11.636;2023-05-19T08:39:01;15.20;42.10
9425;DHT22;17139;52.140;11.636;2023-05-19T08:41:28;15.30;42.30
9425;DHT22;17139;52.140;11.636;2023-05-19T08:43:55;15.40;42.30
9425;DHT22;17139;52.140;11.636;2023-05-19T08:46:24;15.40;42.20
9425;DHT22;17139;52.140;11.636;2023-05-19T08:48:53;15.40;42.30
9425;DHT22;17139;52.140;11.636;2023-05-19T08:51:30;15.30;42.30
9425;DHT22;17139;52.140;11.636;2023-05-19T08:54:06;15.40;42.60
9425;DHT22;17139;52.140;11.636;2023-05-19T08:56:35;15.60;42.40
9425;DHT22;17139;52.140;11.636;2023-05-19T08:59:03;16.20;41.90
9425;DHT22;17139;52.140;11.636;2023-05-19T09:01:32;16.10;41.80
9425;DHT22;17139;52.140;11.636;2023-05-19T09:04:00;16.00;42.00
9425;DHT22;17139;52.140;11.636;2023-05-19T09:06:27;16.20;42.30
9425;DHT22;17139;52.140;11.636;2023-05-19T09:08:56;16.30;42.10
9425;DHT22;17139;52.140;11.636;2023-05-19T09:11:27;16.40;42.00
9425;DHT22;17139;52.140;11.636;2023-05-19T09:13:55;16.50;42.00
9425;DHT22;17139;52.140;11.636;2023-05-19T09:16:21;16.50;41.70
9425;DHT22;17139;52.140;11.636;2023-05-19T09:18:53;16.50;41.60
9425;DHT22;17139;52.140;11.636;2023-05-19T09:21:26;16.50;41.30
9425;DHT22;17139;52.140;11.636;2023-05-19T09:23:55;16.50;41.20
9425;DHT22;17139;52.140;11.636;2023-05-19T09:26:23;16.50;41.10
9425;DHT22;17139;52.140;11.636;2023-05-19T09:28:57;16.50;41.00
9425;DHT22;17139;52.140;11.636;2023-05-19T09:31:24;16.40;40.90
9425;DHT22;17139;52.140;11.636;2023-05-19T09:33:57;16.40;41.20
9425;DHT22;17139;52.140;11.636;2023-05-19T09:36:24;16.60;41.30
9425;DHT22;17139;52.140;11.636;2023-05-19T09:38:51;16.70;41.00
9425;DHT22;17139;52.140;11.636;2023-05-19T09:41:19;16.80;40.90
9425;DHT22;17139;52.140;11.636;2023-05-19T09:43:54;17.10;40.20
9425;DHT22;17139;52.140;11.636;2023-05-19T09:46:24;17.10;40.50
9425;DHT22;17139;52.140;11.636;2023-05-19T09:48:56;17.10;40.70
9425;DHT22;17139;52.140;11.636;2023-05-19T09:51:23;17.20;40.70
9425;DHT22;17139;52.140;11.636;2023-05-19T09:53:51;17.30;40.80
9425;DHT22;17139;52.140;11.636;2023-05-19T09:56:18;17.40;40.70
9425;DHT22;17139;52.140;11.636;2023-05-19T09:58:48;17.40;40.70
9425;DHT22;17139;52.140;11.636;2023-05-19T10:01:17;17.50;40.70
9425;DHT22;17139;52.140;11.636;2023-05-19T10:03:44;18.20;38.90
9425;DHT22;17139;52.140;11.636;2023-05-19T10:06:11;18.20;39.80
9425;DHT22;17139;52.140;11.636;2023-05-19T10:08:40;18.00;40.00
9425;DHT22;17139;52.140;11.636;2023-05-19T10:11:09;18.50;37.80
9425;DHT22;17139;52.140;11.636;2023-05-19T10:13:37;18.20;39.00
9425;DHT22;17139;52.140;11.636;2023-05-19T10:16:06;18.00;39.60
9425;DHT22;17139;52.140;11.636;2023-05-19T10:18:37;18.00;40.00
9425;DHT22;17139;52.140;11.636;2023-05-19T10:21:05;18.00;39.90
9425;DHT22;17139;52.140;11.636;2023-05-19T10:23:33;17.80;39.70
9425;DHT22;17139;52.140;11.636;2023-05-19T10:26:00;17.80;39.90
9425;DHT22;17139;52.140;11.636;2023-05-19T10:28:34;17.80;40.00
9425;DHT22;17139;52.140;11.636;2023-05-19T10:31:05;18.00;40.10
9425;DHT22;17139;52.140;11.636;2023-05-19T10:33:45;18.50;38.60
9425;DHT22;17139;52.140;11.636;2023-05-19T10:36:29;18.30;39.20
9425;DHT22;17139;52.140;11.636;2023-05-19T10:39:03;18.10;39.60
9425;DHT22;17139;52.140;11.636;2023-05-19T10:41:36;18.10;40.20
9425;DHT22;17139;52.140;11.636;2023-05-19T10:44:10;18.00;39.90
9425;DHT22;17139;52.140;11.636;2023-05-19T10:46:40;18.00;40.10
9425;DHT22;17139;52.140;11.636;2023-05-19T10:49:09;18.00;40.10
9425;DHT22;17139;52.140;11.636;2023-05-19T10:51:36;18.00;40.00
9425;DHT22;17139;52.140;11.636;2023-05-19T10:54:05;17.90;40.00
9425;DHT22;17139;52.140;11.636;2023-05-19T10:56:37;18.50;38.30
9425;DHT22;17139;52.140;11.636;2023-05-19T10:59:06;19.00;37.60
9425;DHT22;17139;52.140;11.636;2023-05-19T11:01:34;18.70;38.60
9425;DHT22;17139;52.140;11.636;2023-05-19T11:04:07;18.70;39.10
9425;DHT22;17139;52.140;11.636;2023-05-19T11:06:38;18.70;39.10
9425;DHT22;17139;52.140;11.636;2023-05-19T11:09:15;18.80;39.40
9425;DHT22;17139;52.140;11.636;2023-05-19T11:11:45;18.90;39.50
9425;DHT22;17139;52.140;11.636;2023-05-19T11:14:14;19.00;39.60
9425;DHT22;17139;52.140;11.636;2023-05-19T11:16:44;19.20;39.60
9425;DHT22;17139;52.140;11.636;2023-05-19T11:19:17;20.10;36.70
9425;DHT22;17139;52.140;11.636;2023-05-19T11:21:50;20.60;35.80
9425;DHT22;17139;52.140;11.636;2023-05-19T11:24:42;20.30;37.30
9425;DHT22;17139;52.140;11.636;2023-05-19T11:27:20;20.00;38.00
9425;DHT22;17139;52.140;11.636;2023-05-19T11:29:49;19.60;38.20
9425;DHT22;17139;52.140;11.636;2023-05-19T11:32:17;19.20;39.10
9425;DHT22;17139;52.140;11.636;2023-05-19T11:34:46;19.00;38.90
9425;DHT22;17139;52.140;11.636;2023-05-19T11:37:15;19.00;39.10
9425;DHT22;17139;52.140;11.636;2023-05-19T11:39:44;19.40;37.80
9425;DHT22;17139;52.140;11.636;2023-05-19T11:42:12;19.30;38.40
9425;DHT22;17139;52.140;11.636;2023-05-19T11:44:39;19.20;38.70
9425;DHT22;17139;52.140;11.636;2023-05-19T11:47:07;19.70;36.80
9425;DHT22;17139;52.140;11.636;2023-05-19T11:49:34;20.00;35.60
9425;DHT22;17139;52.140;11.636;2023-05-19T11:52:02;19.50;37.20
9425;DHT22;17139;52.140;11.636;2023-05-19T11:54:32;19.30;38.00
9425;DHT22;17139;52.140;11.636;2023-05-19T11:57:02;19.10;38.10
9425;DHT22;17139;52.140;11.636;2023-05-19T11:59:30;19.10;38.50
9425;DHT22;17139;52.140;11.636;2023-05-19T12:02:00;19.10;38.50
9425;DHT22;17139;52.140;11.636;2023-05-19T12:04:27;19.20;38.60
9425;DHT22;17139;52.140;11.636;2023-05-19T12:06:54;18.90;38.00
9425;DHT22;17139;52.140;11.636;2023-05-19T12:09:22;19.20;36.30
9425;DHT22;17139;52.140;11.636;2023-05-19T12:11:51;19.50;35.40
9425;DHT22;17139;52.140;11.636;2023-05-19T12:14:18;19.10;36.90
9425;DHT22;17139;52.140;11.636;2023-05-19T12:16:46;19.00;37.80
9425;DHT22;17139;52.140;11.636;2023-05-19T12:19:13;18.90;37.80
9425;DHT22;17139;52.140;11.636;2023-05-19T12:21:40;19.00;38.30
9425;DHT22;17139;52.140;11.636;2023-05-19T12:24:07;19.00;38.30
9425;DHT22;17139;52.140;11.636;2023-05-19T12:26:35;19.30;38.40
9425;DHT22;17139;52.140;11.636;2023-05-19T12:29:05;19.40;38.10
9425;DHT22;17139;52.140;11.636;2023-05-19T12:31:33;19.70;37.20
9425;DHT22;17139;52.140;11.636;2023-05-19T12:34:00;19.90;36.60
9425;DHT22;17139;52.140;11.636;2023-05-19T12:36:27;20.20;36.20
9425;DHT22;17139;52.140;11.636;2023-05-19T12:38:56;20.20;37.20
9425;DHT22;17139;52.140;11.636;2023-05-19T12:41:23;20.20;37.20
9425;DHT22;17139;52.140;11.636;2023-05-19T12:43:52;20.30;37.50
9425;DHT22;17139;52.140;11.636;2023-05-19T12:46:21;20.40;37.60
9425;DHT22;17139;52.140;11.636;2023-05-19T12:48:48;20.50;37.50
9425;DHT22;17139;52.140;11.636;2023-05-19T12:51:16;20.60;37.60
9425;DHT22;17139;52.140;11.636;2023-05-19T12:53:43;20.70;37.60
9425;DHT22;17139;52.140;11.636;2023-05-19T12:56:13;20.70;37.70
9425;DHT22;17139;52.140;11.636;2023-05-19T12:58:42;21.00;36.00
9425;DHT22;17139;52.140;11.636;2023-05-19T13:01:15;20.70;37.00
9425;DHT22;17139;52.140;11.636;2023-05-19T13:03:43;20.30;37.00
9425;DHT22;17139;52.140;11.636;2023-05-19T13:06:11;19.80;36.90
9425;DHT22;17139;52.140;11.636;2023-05-19T13:08:38;19.70;37.70
9425;DHT22;17139;52.140;11.636;2023-05-19T13:11:05;19.50;37.70
9425;DHT22;17139;52.140;11.636;2023-05-19T13:13:32;19.50;38.00
9425;DHT22;17139;52.140;11.636;2023-05-19T13:15:59;19.60;38.20
9425;DHT22;17139;52.140;11.636;2023-05-19T13:18:26;19.90;36.90
9425;DHT22;17139;52.140;11.636;2023-05-19T13:20:58;20.50;35.60
9425;DHT22;17139;52.140;11.636;2023-05-19T13:23:25;21.00;34.20
9425;DHT22;17139;52.140;11.636;2023-05-19T13:25:52;20.70;35.70
9425;DHT22;17139;52.140;11.636;2023-05-19T13:28:19;20.40;36.40
9425;DHT22;17139;52.140;11.636;2023-05-19T13:30:46;20.30;36.80
9425;DHT22;17139;52.140;11.636;2023-05-19T13:33:14;20.20;37.20
9425;DHT22;17139;52.140;11.636;2023-05-19T13:35:41;20.40;35.40
9425;DHT22;17139;52.140;11.636;2023-05-19T13:38:09;20.20;36.60
9425;DHT22;17139;52.140;11.636;2023-05-19T13:40:37;20.30;35.60
9425;DHT22;17139;52.140;11.636;2023-05-19T13:43:04;20.30;36.70
9425;DHT22;17139;52.140;11.636;2023-05-19T13:45:32;20.10;36.80
9425;DHT22;17139;52.140;11.636;2023-05-19T13:48:01;20.00;37.00
9425;DHT22;17139;52.140;11.636;2023-05-19T13:50:28;20.30;37.30
9425;DHT22;17139;52.140;11.636;2023-05-19T13:52:55;20.50;37.30
9425;DHT22;17139;52.140;11.636;2023-05-19T13:55:24;20.70;37.40
9425;DHT22;17139;52.140;11.636;2023-05-19T13:57:52;21.50;34.30
9425;DHT22;17139;52.140;11.636;2023-05-19T14:00:19;21.40;35.80
9425;DHT22;17139;52.140;11.636;2023-05-19T14:02:46;21.30;36.30
9425;DHT22;17139;52.140;11.636;2023-05-19T14:05:13;21.70;34.40
9425;DHT22;17139;52.140;11.636;2023-05-19T14:07:40;21.50;35.70
9425;DHT22;17139;52.140;11.636;2023-05-19T14:10:09;21.20;36.30
9425;DHT22;17139;52.140;11.636;2023-05-19T14:12:38;21.00;36.50
9425;DHT22;17139;52.140;11.636;2023-05-19T14:15:05;20.90;36.80
9425;DHT22;17139;52.140;11.636;2023-05-19T14:17:33;20.70;36.60
9425;DHT22;17139;52.140;11.636;2023-05-19T14:20:00;20.50;36.90
9425;DHT22;17139;52.140;11.636;2023-05-19T14:22:27;20.50;37.00
9425;DHT22;17139;52.140;11.636;2023-05-19T14:24:54;20.80;34.70
9425;DHT22;17139;52.140;11.636;2023-05-19T14:27:21;21.20;33.70
9425;DHT22;17139;52.140;11.636;2023-05-19T14:29:49;20.70;35.30
9425;DHT22;17139;52.140;11.636;2023-05-19T14:32:16;20.50;36.10
9425;DHT22;17139;52.140;11.636;2023-05-19T14:34:43;20.20;36.30
9425;DHT22;17139;52.140;11.636;2023-05-19T14:37:10;20.00;36.60
9425;DHT22;17139;52.140;11.636;2023-05-19T14:39:37;20.00;37.00
9425;DHT22;17139;52.140;11.636;2023-05-19T14:42:04;20.00;37.00
9425;DHT22;17139;52.140;11.636;2023-05-19T14:44:31;20.20;35.90
9425;DHT22;17139;52.140;11.636;2023-05-19T14:47:01;20.40;35.00
9425;DHT22;17139;52.140;11.636;2023-05-19T14:49:28;20.20;36.00
9425;DHT22;17139;52.140;11.636;2023-05-19T14:51:55;20.10;36.60
9425;DHT22;17139;52.140;11.636;2023-05-19T14:54:22;20.00;36.50
9425;DHT22;17139;52.140;11.636;2023-05-19T14:56:49;20.00;36.50
9425;DHT22;17139;52.140;11.636;2023-05-19T14:59:16;20.10;36.60
9425;DHT22;17139;52.140;11.636;2023-05-19T15:01:43;20.20;36.90
9425;DHT22;17139;52.140;11.636;2023-05-19T15:04:12;20.50;35.80
9425;DHT22;17139;52.140;11.636;2023-05-19T15:06:39;20.80;35.00
9425;DHT22;17139;52.140;11.636;2023-05-19T15:09:06;20.60;35.90
9425;DHT22;17139;52.140;11.636;2023-05-19T15:11:33;20.50;36.50
9425;DHT22;17139;52.140;11.636;2023-05-19T15:14:00;20.30;36.00
9425;DHT22;17139;52.140;11.636;2023-05-19T15:16:27;20.00;36.20
9425;DHT22;17139;52.140;11.636;2023-05-19T15:18:54;19.80;36.50
9425;DHT22;17139;52.140;11.636;2023-05-19T15:21:23;19.60;36.40
9425;DHT22;17139;52.140;11.636;2023-05-19T15:23:50;19.90;35.00
9425;DHT22;17139;52.140;11.636;2023-05-19T15:26:17;20.10;34.80
9425;DHT22;17139;52.140;11.636;2023-05-19T15:28:44;19.90;35.80
9425;DHT22;17139;52.140;11.636;2023-05-19T15:31:11;19.70;36.40
9425;DHT22;17139;52.140;11.636;2023-05-19T15:33:38;19.50;36.40
9425;DHT22;17139;52.140;11.636;2023-05-19T15:36:05;19.50;36.60
9425;DHT22;17139;52.140;11.636;2023-05-19T15:38:35;19.50;36.60
9425;DHT22;17139;52.140;11.636;2023-05-19T15:41:05;19.60;36.70
9425;DHT22;17139;52.140;11.636;2023-05-19T15:43:33;20.30;35.10